sensor_id;sensor_type;location;lat;lon;timestamp;P1;durP1;ratioP1;P2;durP2;ratioP2
27127;SDS011;14660;49.008;8.390;2022-12-11T00:01:20;27.63;;;17.02;;
27127;SDS011;14660;49.008;8.390;2022-12-11T00:03:46;33.20;;;18.25;;
27127;SDS011;14660;49.008;8.390;2022-12-11T00:06:13;29.67;;;18.65;;
27127;SDS011;14660;49.008;8.390;2022-12-11T00:08:40;31.48;;;17.13;;
27127;SDS011;14660;49.008;8.390;2022-12-11T00:11:07;34.45;;;18.77;;
27127;SDS011;14660;49.008;8.390;2022-12-11T00:13:34;30.73;;;18.42;;
27127;SDS011;14660;49.008;8.390;2022-12-11T00:15:59;36.10;;;19.50;;
27127;SDS011;14660;49.008;8.390;2022-12-11T00:18:25;39.58;;;19.02;;
27127;SDS011;14660;49.008;8.390;2022-12-11T00:20:51;32.90;;;18.80;;
27127;SDS011;14660;49.008;8.390;2022-12-11T00:23:16;37.38;;;18.77;;
27127;SDS011;14660;49.008;8.390;2022-12-11T00:25:46;34.45;;;17.45;;
27127;SDS011;14660;49.008;8.390;2022-12-11T00:28:13;33.35;;;18.35;;
27127;SDS011;14660;49.008;8.390;2022-12-11T00:30:40;36.53;;;20.52;;
27127;SDS011;14660;49.008;8.390;2022-12-11T00:33:07;35.15;;;19.38;;
27127;SDS011;14660;49.008;8.390;2022-12-11T00:38:27;35.33;;;18.40;;
27127;SDS011;14660;49.008;8.390;2022-12-11T00:40:56;33.67;;;19.10;;
27127;SDS011;14660;49.008;8.390;2022-12-11T00:43:23;34.35;;;17.70;;
27127;SDS011;14660;49.008;8.390;2022-12-11T00:45:48;36.55;;;18.85;;
27127;SDS011;14660;49.008;8.390;2022-12-11T00:48:14;31.40;;;19.00;;
27127;SDS011;14660;49.008;8.390;2022-12-11T00:50:39;31.15;;;17.45;;
27127;SDS011;14660;49.008;8.390;2022-12-11T00:53:05;27.63;;;15.88;;
27127;SDS011;14660;49.008;8.390;2022-12-11T00:55:35;31.98;;;18.85;;
27127;SDS011;14660;49.008;8.390;2022-12-11T00:58:02;32.75;;;17.40;;
27127;SDS011;14660;49.008;8.390;2022-12-11T01:00:28;35.10;;;17.80;;
27127;SDS011;14660;49.008;8.390;2022-12-11T01:02:53;28.77;;;15.90;;
27127;SDS011;14660;49.008;8.390;2022-12-11T01:05:20;30.50;;;17.48;;
27127;SDS011;14660;49.008;8.390;2022-12-11T01:07:46;34.17;;;17.60;;
27127;SDS011;14660;49.008;8.390;2022-12-11T01:10:12;30.85;;;16.52;;
27127;SDS011;14660;49.008;8.390;2022-12-11T01:13:03;31.15;;;18.27;;
27127;SDS011;14660;49.008;8.390;2022-12-11T01:15:37;36.55;;;18.20;;
27127;SDS011;14660;49.008;8.390;2022-12-11T01:18:04;37.17;;;18.48;;
27127;SDS011;14660;49.008;8.390;2022-12-11T01:20:31;31.67;;;16.77;;
27127;SDS011;14660;49.008;8.390;2022-12-11T01:22:57;34.70;;;18.00;;
27127;SDS011;14660;49.008;8.390;2022-12-11T01:25:24;35.00;;;17.42;;
27127;SDS011;14660;49.008;8.390;2022-12-11T01:27:51;35.05;;;18.70;;
27127;SDS011;14660;49.008;8.390;2022-12-11T01:30:19;30.35;;;16.90;;
27127;SDS011;14660;49.008;8.390;2022-12-11T01:32:47;39.10;;;19.98;;
27127;SDS011;14660;49.008;8.390;2022-12-11T01:35:13;37.45;;;18.33;;
27127;SDS011;14660;49.008;8.390;2022-12-11T01:37:39;34.65;;;18.77;;
27127;SDS011;14660;49.008;8.390;2022-12-11T01:40:06;36.10;;;18.15;;
27127;SDS011;14660;49.008;8.390;2022-12-11T01:42:34;38.63;;;20.08;;
27127;SDS011;14660;49.008;8.390;2022-12-11T01:50:26;34.47;;;17.70;;
27127;SDS011;14660;49.008;8.390;2022-12-11T01:52:53;43.92;;;20.05;;
27127;SDS011;14660;49.008;8.390;2022-12-11T01:55:19;45.72;;;21.27;;
27127;SDS011;14660;49.008;8.390;2022-12-11T01:57:47;39.13;;;21.35;;
27127;SDS011;14660;49.008;8.390;2022-12-11T02:00:16;41.83;;;19.27;;
27127;SDS011;14660;49.008;8.390;2022-12-11T02:02:43;42.75;;;19.80;;
27127;SDS011;14660;49.008;8.390;2022-12-11T02:05:09;41.72;;;19.10;;
27127;SDS011;14660;49.008;8.390;2022-12-11T02:07:40;42.47;;;19.40;;
27127;SDS011;14660;49.008;8.390;2022-12-11T02:10:13;37.08;;;18.25;;
27127;SDS011;14660;49.008;8.390;2022-12-11T02:15:32;43.90;;;19.60;;
27127;SDS011;14660;49.008;8.390;2022-12-11T02:20:57;39.95;;;20.55;;
27127;SDS011;14660;49.008;8.390;2022-12-11T02:23:38;44.50;;;20.75;;
27127;SDS011;14660;49.008;8.390;2022-12-11T02:26:19;40.63;;;19.92;;
27127;SDS011;14660;49.008;8.390;2022-12-11T02:29:25;45.35;;;19.85;;
27127;SDS011;14660;49.008;8.390;2022-12-11T02:32:16;39.88;;;19.52;;
27127;SDS011;14660;49.008;8.390;2022-12-11T02:35:11;43.05;;;20.35;;
27127;SDS011;14660;49.008;8.390;2022-12-11T02:37:42;40.92;;;19.38;;
27127;SDS011;14660;49.008;8.390;2022-12-11T02:40:11;46.22;;;20.20;;
27127;SDS011;14660;49.008;8.390;2022-12-11T02:42:42;45.78;;;21.73;;
27127;SDS011;14660;49.008;8.390;2022-12-11T02:45:11;40.70;;;18.58;;
27127;SDS011;14660;49.008;8.390;2022-12-11T02:47:37;42.03;;;19.52;;
27127;SDS011;14660;49.008;8.390;2022-12-11T02:50:05;40.85;;;19.48;;
27127;SDS011;14660;49.008;8.390;2022-12-11T02:52:34;43.70;;;21.77;;
27127;SDS011;14660;49.008;8.390;2022-12-11T02:55:01;41.72;;;20.23;;
27127;SDS011;14660;49.008;8.390;2022-12-11T02:57:36;43.30;;;20.70;;
27127;SDS011;14660;49.008;8.390;2022-12-11T03:00:08;46.95;;;19.60;;
27127;SDS011;14660;49.008;8.390;2022-12-11T03:02:35;41.47;;;21.17;;
27127;SDS011;14660;49.008;8.390;2022-12-11T03:05:01;45.08;;;23.05;;
27127;SDS011;14660;49.008;8.390;2022-12-11T03:07:30;48.42;;;21.63;;
27127;SDS011;14660;49.008;8.390;2022-12-11T03:09:58;44.75;;;21.40;;
27127;SDS011;14660;49.008;8.390;2022-12-11T03:12:26;41.75;;;18.20;;
27127;SDS011;14660;49.008;8.390;2022-12-11T03:14:54;46.08;;;19.83;;
27127;SDS011;14660;49.008;8.390;2022-12-11T03:17:22;45.28;;;19.67;;
27127;SDS011;14660;49.008;8.390;2022-12-11T03:19:59;45.80;;;19.88;;
27127;SDS011;14660;49.008;8.390;2022-12-11T03:22:55;50.53;;;22.75;;
27127;SDS011;14660;49.008;8.390;2022-12-11T03:25:33;44.63;;;21.33;;
27127;SDS011;14660;49.008;8.390;2022-12-11T03:28:15;43.15;;;21.00;;
27127;SDS011;14660;49.008;8.390;2022-12-11T03:30:58;46.17;;;21.17;;
27127;SDS011;14660;49.008;8.390;2022-12-11T03:33:34;51.75;;;22.02;;
27127;SDS011;14660;49.008;8.390;2022-12-11T03:36:11;43.25;;;21.88;;
27127;SDS011;14660;49.008;8.390;2022-12-11T03:38:48;51.10;;;21.02;;
27127;SDS011;14660;49.008;8.390;2022-12-11T03:41:19;45.60;;;21.15;;
27127;SDS011;14660;49.008;8.390;2022-12-11T03:43:47;46.15;;;21.13;;
27127;SDS011;14660;49.008;8.390;2022-12-11T03:46:17;50.45;;;22.75;;
27127;SDS011;14660;49.008;8.390;2022-12-11T03:48:45;47.53;;;21.98;;
27127;SDS011;14660;49.008;8.390;2022-12-11T03:51:13;45.17;;;20.02;;
27127;SDS011;14660;49.008;8.390;2022-12-11T03:53:41;48.72;;;21.10;;
27127;SDS011;14660;49.008;8.390;2022-12-11T03:56:09;48.67;;;22.55;;
27127;SDS011;14660;49.008;8.390;2022-12-11T03:58:37;51.25;;;23.20;;
27127;SDS011;14660;49.008;8.390;2022-12-11T04:01:07;48.55;;;19.98;;
27127;SDS011;14660;49.008;8.390;2022-12-11T04:03:35;45.70;;;21.10;;
27127;SDS011;14660;49.008;8.390;2022-12-11T04:06:03;49.58;;;20.35;;
27127;SDS011;14660;49.008;8.390;2022-12-11T04:08:29;48.25;;;20.77;;
27127;SDS011;14660;49.008;8.390;2022-12-11T04:10:55;43.35;;;19.52;;
27127;SDS011;14660;49.008;8.390;2022-12-11T04:13:40;40.35;;;19.00;;
27127;SDS011;14660;49.008;8.390;2022-12-11T04:16:08;45.92;;;20.65;;
27127;SDS011;14660;49.008;8.390;2022-12-11T04:18:35;47.00;;;20.70;;
27127;SDS011;14660;49.008;8.390;2022-12-11T04:21:20;47.88;;;22.05;;
27127;SDS011;14660;49.008;8.390;2022-12-11T04:24:06;42.30;;;19.90;;
27127;SDS011;14660;49.008;8.390;2022-12-11T04:26:43;43.13;;;21.23;;
27127;SDS011;14660;49.008;8.390;2022-12-11T04:29:10;43.58;;;21.33;;
27127;SDS011;14660;49.008;8.390;2022-12-11T04:31:37;59.15;;;23.77;;
27127;SDS011;14660;49.008;8.390;2022-12-11T04:34:04;43.53;;;19.90;;
27127;SDS011;14660;49.008;8.390;2022-12-11T04:36:32;46.58;;;19.75;;
27127;SDS011;14660;49.008;8.390;2022-12-11T04:38:57;44.10;;;22.52;;
27127;SDS011;14660;49.008;8.390;2022-12-11T04:41:24;44.55;;;21.17;;
27127;SDS011;14660;49.008;8.390;2022-12-11T04:43:51;45.00;;;20.00;;
27127;SDS011;14660;49.008;8.390;2022-12-11T04:46:19;47.40;;;20.17;;
27127;SDS011;14660;49.008;8.390;2022-12-11T04:48:47;47.30;;;20.70;;
27127;SDS011;14660;49.008;8.390;2022-12-11T04:51:13;44.83;;;21.17;;
27127;SDS011;14660;49.008;8.390;2022-12-11T04:53:41;46.85;;;21.27;;
27127;SDS011;14660;49.008;8.390;2022-12-11T04:56:09;36.22;;;19.88;;
27127;SDS011;14660;49.008;8.390;2022-12-11T04:58:37;50.92;;;23.20;;
27127;SDS011;14660;49.008;8.390;2022-12-11T05:01:22;39.38;;;20.52;;
27127;SDS011;14660;49.008;8.390;2022-12-11T05:03:49;47.92;;;21.08;;
27127;SDS011;14660;49.008;8.390;2022-12-11T05:06:14;46.03;;;19.50;;
27127;SDS011;14660;49.008;8.390;2022-12-11T05:08:41;47.92;;;21.75;;
27127;SDS011;14660;49.008;8.390;2022-12-11T05:11:10;47.63;;;21.50;;
27127;SDS011;14660;49.008;8.390;2022-12-11T05:13:37;49.45;;;20.92;;
27127;SDS011;14660;49.008;8.390;2022-12-11T05:16:03;47.20;;;20.05;;
27127;SDS011;14660;49.008;8.390;2022-12-11T05:18:32;49.80;;;21.65;;
27127;SDS011;14660;49.008;8.390;2022-12-11T05:20:59;48.70;;;21.48;;
27127;SDS011;14660;49.008;8.390;2022-12-11T05:23:27;45.15;;;19.90;;
27127;SDS011;14660;49.008;8.390;2022-12-11T05:25:55;45.88;;;21.48;;
27127;SDS011;14660;49.008;8.390;2022-12-11T05:28:23;48.42;;;22.85;;
27127;SDS011;14660;49.008;8.390;2022-12-11T05:31:01;44.88;;;20.98;;
27127;SDS011;14660;49.008;8.390;2022-12-11T05:33:29;51.92;;;20.92;;
27127;SDS011;14660;49.008;8.390;2022-12-11T05:35:56;50.55;;;20.98;;
27127;SDS011;14660;49.008;8.390;2022-12-11T05:38:22;50.08;;;19.58;;
27127;SDS011;14660;49.008;8.390;2022-12-11T05:40:58;44.20;;;21.88;;
27127;SDS011;14660;49.008;8.390;2022-12-11T05:43:29;49.30;;;21.13;;
27127;SDS011;14660;49.008;8.390;2022-12-11T05:46:08;40.92;;;20.50;;
27127;SDS011;14660;49.008;8.390;2022-12-11T05:48:44;42.78;;;19.80;;
27127;SDS011;14660;49.008;8.390;2022-12-11T05:51:13;43.00;;;18.58;;
27127;SDS011;14660;49.008;8.390;2022-12-11T05:53:41;43.20;;;21.10;;
27127;SDS011;14660;49.008;8.390;2022-12-11T05:56:19;40.63;;;19.63;;
27127;SDS011;14660;49.008;8.390;2022-12-11T05:58:51;39.33;;;18.30;;
27127;SDS011;14660;49.008;8.390;2022-12-11T06:01:20;39.85;;;22.15;;
27127;SDS011;14660;49.008;8.390;2022-12-11T06:03:47;44.97;;;19.42;;
27127;SDS011;14660;49.008;8.390;2022-12-11T06:06:14;39.45;;;18.98;;
27127;SDS011;14660;49.008;8.390;2022-12-11T06:08:40;47.83;;;19.80;;
27127;SDS011;14660;49.008;8.390;2022-12-11T06:11:06;47.60;;;19.88;;
27127;SDS011;14660;49.008;8.390;2022-12-11T06:13:32;38.40;;;19.88;;
27127;SDS011;14660;49.008;8.390;2022-12-11T06:16:04;42.05;;;19.63;;
27127;SDS011;14660;49.008;8.390;2022-12-11T06:18:30;39.30;;;18.20;;
27127;SDS011;14660;49.008;8.390;2022-12-11T06:21:09;45.90;;;22.27;;
27127;SDS011;14660;49.008;8.390;2022-12-11T06:23:50;44.47;;;21.20;;
27127;SDS011;14660;49.008;8.390;2022-12-11T06:26:19;45.97;;;21.23;;
27127;SDS011;14660;49.008;8.390;2022-12-11T06:28:46;41.38;;;18.63;;
27127;SDS011;14660;49.008;8.390;2022-12-11T06:31:13;40.20;;;20.40;;
27127;SDS011;14660;49.008;8.390;2022-12-11T06:33:40;42.20;;;19.30;;
27127;SDS011;14660;49.008;8.390;2022-12-11T06:36:08;47.97;;;18.67;;
27127;SDS011;14660;49.008;8.390;2022-12-11T06:38:35;41.97;;;20.40;;
27127;SDS011;14660;49.008;8.390;2022-12-11T06:41:02;41.20;;;20.05;;
27127;SDS011;14660;49.008;8.390;2022-12-11T06:43:33;44.08;;;19.05;;
27127;SDS011;14660;49.008;8.390;2022-12-11T06:46:04;39.83;;;18.42;;
27127;SDS011;14660;49.008;8.390;2022-12-11T06:48:35;40.67;;;20.48;;
27127;SDS011;14660;49.008;8.390;2022-12-11T06:51:07;38.72;;;19.50;;
27127;SDS011;14660;49.008;8.390;2022-12-11T06:53:35;43.75;;;19.63;;
27127;SDS011;14660;49.008;8.390;2022-12-11T06:56:02;53.35;;;21.02;;
27127;SDS011;14660;49.008;8.390;2022-12-11T06:58:30;42.40;;;19.70;;
27127;SDS011;14660;49.008;8.390;2022-12-11T07:00:58;40.35;;;18.27;;
27127;SDS011;14660;49.008;8.390;2022-12-11T07:03:24;43.03;;;19.17;;
27127;SDS011;14660;49.008;8.390;2022-12-11T07:05:51;43.65;;;17.33;;
27127;SDS011;14660;49.008;8.390;2022-12-11T07:08:18;42.42;;;19.98;;
27127;SDS011;14660;49.008;8.390;2022-12-11T07:10:44;44.70;;;20.15;;
27127;SDS011;14660;49.008;8.390;2022-12-11T07:13:11;43.03;;;19.20;;
27127;SDS011;14660;49.008;8.390;2022-12-11T07:15:38;43.22;;;19.08;;
27127;SDS011;14660;49.008;8.390;2022-12-11T07:18:04;43.28;;;18.20;;
27127;SDS011;14660;49.008;8.390;2022-12-11T07:20:31;36.80;;;17.23;;
27127;SDS011;14660;49.008;8.390;2022-12-11T07:22:57;44.45;;;20.27;;
27127;SDS011;14660;49.008;8.390;2022-12-11T07:25:23;45.85;;;19.15;;
27127;SDS011;14660;49.008;8.390;2022-12-11T07:27:50;35.20;;;20.75;;
27127;SDS011;14660;49.008;8.390;2022-12-11T07:30:16;38.72;;;17.98;;
27127;SDS011;14660;49.008;8.390;2022-12-11T07:32:43;41.08;;;20.10;;
27127;SDS011;14660;49.008;8.390;2022-12-11T07:35:10;42.35;;;18.33;;
27127;SDS011;14660;49.008;8.390;2022-12-11T07:37:38;43.28;;;20.40;;
27127;SDS011;14660;49.008;8.390;2022-12-11T07:40:06;35.70;;;17.23;;
27127;SDS011;14660;49.008;8.390;2022-12-11T07:42:33;44.78;;;20.25;;
27127;SDS011;14660;49.008;8.390;2022-12-11T07:45:00;42.20;;;19.35;;
27127;SDS011;14660;49.008;8.390;2022-12-11T07:47:27;36.42;;;17.88;;
27127;SDS011;14660;49.008;8.390;2022-12-11T07:49:54;39.97;;;18.75;;
27127;SDS011;14660;49.008;8.390;2022-12-11T07:52:22;42.17;;;19.25;;
27127;SDS011;14660;49.008;8.390;2022-12-11T07:54:48;43.63;;;17.60;;
27127;SDS011;14660;49.008;8.390;2022-12-11T07:57:16;42.53;;;20.88;;
27127;SDS011;14660;49.008;8.390;2022-12-11T07:59:43;47.13;;;20.00;;
27127;SDS011;14660;49.008;8.390;2022-12-11T08:02:11;41.42;;;19.17;;
27127;SDS011;14660;49.008;8.390;2022-12-11T08:04:37;44.67;;;19.65;;
27127;SDS011;14660;49.008;8.390;2022-12-11T08:07:03;42.85;;;19.60;;
27127;SDS011;14660;49.008;8.390;2022-12-11T08:09:29;44.53;;;19.05;;
27127;SDS011;14660;49.008;8.390;2022-12-11T08:11:54;37.00;;;18.52;;
27127;SDS011;14660;49.008;8.390;2022-12-11T08:14:21;42.25;;;18.70;;
27127;SDS011;14660;49.008;8.390;2022-12-11T08:16:47;48.35;;;20.50;;
27127;SDS011;14660;49.008;8.390;2022-12-11T08:19:14;44.65;;;20.25;;
27127;SDS011;14660;49.008;8.390;2022-12-11T08:21:42;39.65;;;18.52;;
27127;SDS011;14660;49.008;8.390;2022-12-11T08:24:09;41.85;;;18.60;;
27127;SDS011;14660;49.008;8.390;2022-12-11T08:26:34;41.30;;;18.73;;
27127;SDS011;14660;49.008;8.390;2022-12-11T08:29:01;37.63;;;18.95;;
27127;SDS011;14660;49.008;8.390;2022-12-11T08:31:29;41.13;;;17.45;;
27127;SDS011;14660;49.008;8.390;2022-12-11T08:33:56;41.05;;;18.17;;
27127;SDS011;14660;49.008;8.390;2022-12-11T08:36:22;41.33;;;18.27;;
27127;SDS011;14660;49.008;8.390;2022-12-11T08:38:49;38.97;;;18.52;;
27127;SDS011;14660;49.008;8.390;2022-12-11T08:43:52;35.33;;;17.15;;
27127;SDS011;14660;49.008;8.390;2022-12-11T08:46:26;33.78;;;17.50;;
27127;SDS011;14660;49.008;8.390;2022-12-11T08:48:54;40.07;;;19.90;;
27127;SDS011;14660;49.008;8.390;2022-12-11T08:51:22;62.78;;;31.02;;
27127;SDS011;14660;49.008;8.390;2022-12-11T08:53:50;86.63;;;41.47;;
27127;SDS011;14660;49.008;8.390;2022-12-11T08:56:19;61.90;;;29.45;;
27127;SDS011;14660;49.008;8.390;2022-12-11T08:58:49;60.75;;;26.33;;
27127;SDS011;14660;49.008;8.390;2022-12-11T09:01:18;48.38;;;24.23;;
27127;SDS011;14660;49.008;8.390;2022-12-11T09:03:49;43.75;;;20.48;;
27127;SDS011;14660;49.008;8.390;2022-12-11T09:06:17;54.47;;;26.15;;
27127;SDS011;14660;49.008;8.390;2022-12-11T09:08:46;45.28;;;23.17;;
27127;SDS011;14660;49.008;8.390;2022-12-11T09:11:14;52.20;;;22.90;;
27127;SDS011;14660;49.008;8.390;2022-12-11T09:13:42;44.70;;;20.88;;
27127;SDS011;14660;49.008;8.390;2022-12-11T09:16:11;47.22;;;21.27;;
27127;SDS011;14660;49.008;8.390;2022-12-11T09:18:39;43.45;;;20.52;;
27127;SDS011;14660;49.008;8.390;2022-12-11T09:21:08;45.78;;;21.02;;
27127;SDS011;14660;49.008;8.390;2022-12-11T09:23:36;36.10;;;17.65;;
27127;SDS011;14660;49.008;8.390;2022-12-11T09:26:04;44.53;;;21.00;;
27127;SDS011;14660;49.008;8.390;2022-12-11T09:28:36;42.13;;;20.80;;
27127;SDS011;14660;49.008;8.390;2022-12-11T09:31:10;39.13;;;20.27;;
27127;SDS011;14660;49.008;8.390;2022-12-11T09:33:49;43.25;;;19.08;;
27127;SDS011;14660;49.008;8.390;2022-12-11T09:36:17;38.92;;;18.92;;
27127;SDS011;14660;49.008;8.390;2022-12-11T09:38:43;42.38;;;18.98;;
27127;SDS011;14660;49.008;8.390;2022-12-11T09:46:57;45.28;;;20.20;;
27127;SDS011;14660;49.008;8.390;2022-12-11T09:54:58;47.10;;;21.40;;
27127;SDS011;14660;49.008;8.390;2022-12-11T10:17:43;48.13;;;22.13;;
27127;SDS011;14660;49.008;8.390;2022-12-11T10:23:02;45.65;;;21.92;;
27127;SDS011;14660;49.008;8.390;2022-12-11T10:25:33;41.25;;;19.30;;
27127;SDS011;14660;49.008;8.390;2022-12-11T10:28:10;45.30;;;19.85;;
27127;SDS011;14660;49.008;8.390;2022-12-11T10:30:40;39.63;;;20.33;;
27127;SDS011;14660;49.008;8.390;2022-12-11T10:33:40;46.30;;;21.55;;
27127;SDS011;14660;49.008;8.390;2022-12-11T10:36:10;42.70;;;20.58;;
27127;SDS011;14660;49.008;8.390;2022-12-11T10:38:43;42.53;;;20.73;;
27127;SDS011;14660;49.008;8.390;2022-12-11T10:41:11;43.03;;;19.67;;
27127;SDS011;14660;49.008;8.390;2022-12-11T10:43:43;42.20;;;20.83;;
27127;SDS011;14660;49.008;8.390;2022-12-11T10:46:15;39.75;;;20.20;;
27127;SDS011;14660;49.008;8.390;2022-12-11T10:48:50;44.42;;;20.52;;
27127;SDS011;14660;49.008;8.390;2022-12-11T10:51:20;45.90;;;22.25;;
27127;SDS011;14660;49.008;8.390;2022-12-11T10:53:50;45.22;;;22.48;;
27127;SDS011;14660;49.008;8.390;2022-12-11T10:56:23;46.63;;;21.25;;
27127;SDS011;14660;49.008;8.390;2022-12-11T10:58:55;40.08;;;21.30;;
27127;SDS011;14660;49.008;8.390;2022-12-11T11:01:24;40.25;;;20.80;;
27127;SDS011;14660;49.008;8.390;2022-12-11T11:03:57;45.50;;;19.83;;
27127;SDS011;14660;49.008;8.390;2022-12-11T11:06:44;37.83;;;19.67;;
27127;SDS011;14660;49.008;8.390;2022-12-11T11:09:30;40.63;;;20.42;;
27127;SDS011;14660;49.008;8.390;2022-12-11T11:11:59;46.05;;;21.45;;
27127;SDS011;14660;49.008;8.390;2022-12-11T11:14:26;46.17;;;22.20;;
27127;SDS011;14660;49.008;8.390;2022-12-11T11:16:56;47.38;;;21.58;;
27127;SDS011;14660;49.008;8.390;2022-12-11T11:19:35;42.17;;;21.00;;
27127;SDS011;14660;49.008;8.390;2022-12-11T11:22:12;40.00;;;19.70;;
27127;SDS011;14660;49.008;8.390;2022-12-11T11:33:22;49.95;;;22.83;;
27127;SDS011;14660;49.008;8.390;2022-12-11T11:38:45;48.05;;;21.83;;
27127;SDS011;14660;49.008;8.390;2022-12-11T11:44:31;45.72;;;22.48;;
27127;SDS011;14660;49.008;8.390;2022-12-11T11:47:16;39.63;;;21.75;;
27127;SDS011;14660;49.008;8.390;2022-12-11T12:01:17;47.92;;;22.33;;
27127;SDS011;14660;49.008;8.390;2022-12-11T12:03:45;43.22;;;22.67;;
27127;SDS011;14660;49.008;8.390;2022-12-11T12:09:18;42.05;;;20.48;;
27127;SDS011;14660;49.008;8.390;2022-12-11T12:26:21;44.63;;;23.15;;
27127;SDS011;14660;49.008;8.390;2022-12-11T12:37:22;42.75;;;19.75;;
27127;SDS011;14660;49.008;8.390;2022-12-11T12:48:58;40.88;;;20.25;;
27127;SDS011;14660;49.008;8.390;2022-12-11T12:51:26;41.67;;;21.63;;
27127;SDS011;14660;49.008;8.390;2022-12-11T12:53:55;44.05;;;20.48;;
27127;SDS011;14660;49.008;8.390;2022-12-11T12:56:26;43.53;;;21.70;;
27127;SDS011;14660;49.008;8.390;2022-12-11T12:58:56;43.05;;;21.42;;
27127;SDS011;14660;49.008;8.390;2022-12-11T13:01:22;37.47;;;19.85;;
27127;SDS011;14660;49.008;8.390;2022-12-11T13:06:49;41.50;;;20.13;;
27127;SDS011;14660;49.008;8.390;2022-12-11T13:09:34;47.60;;;23.63;;
27127;SDS011;14660;49.008;8.390;2022-12-11T13:11:59;39.28;;;17.73;;
27127;SDS011;14660;49.008;8.390;2022-12-11T13:14:40;30.92;;;17.00;;
27127;SDS011;14660;49.008;8.390;2022-12-11T13:20:12;35.97;;;17.98;;
27127;SDS011;14660;49.008;8.390;2022-12-11T13:22:52;35.63;;;19.23;;
27127;SDS011;14660;49.008;8.390;2022-12-11T13:25:29;33.97;;;18.70;;
27127;SDS011;14660;49.008;8.390;2022-12-11T13:28:18;33.03;;;16.88;;
27127;SDS011;14660;49.008;8.390;2022-12-11T13:33:47;40.25;;;19.27;;
27127;SDS011;14660;49.008;8.390;2022-12-11T13:39:15;33.90;;;18.13;;
27127;SDS011;14660;49.008;8.390;2022-12-11T13:41:55;41.00;;;19.88;;
27127;SDS011;14660;49.008;8.390;2022-12-11T13:44:29;39.72;;;18.02;;
27127;SDS011;14660;49.008;8.390;2022-12-11T13:47:01;33.22;;;17.60;;
27127;SDS011;14660;49.008;8.390;2022-12-11T13:49:39;39.15;;;19.67;;
27127;SDS011;14660;49.008;8.390;2022-12-11T13:52:20;34.72;;;18.85;;
27127;SDS011;14660;49.008;8.390;2022-12-11T13:54:49;36.33;;;17.05;;
27127;SDS011;14660;49.008;8.390;2022-12-11T14:00:17;34.10;;;19.15;;
27127;SDS011;14660;49.008;8.390;2022-12-11T14:02:51;41.30;;;19.88;;
27127;SDS011;14660;49.008;8.390;2022-12-11T14:05:19;38.33;;;18.23;;
27127;SDS011;14660;49.008;8.390;2022-12-11T14:07:48;34.28;;;18.02;;
27127;SDS011;14660;49.008;8.390;2022-12-11T14:10:35;36.83;;;16.98;;
27127;SDS011;14660;49.008;8.390;2022-12-11T14:13:05;32.97;;;18.20;;
27127;SDS011;14660;49.008;8.390;2022-12-11T14:15:47;35.08;;;18.63;;
27127;SDS011;14660;49.008;8.390;2022-12-11T14:18:18;36.42;;;19.45;;
27127;SDS011;14660;49.008;8.390;2022-12-11T14:20:59;34.92;;;18.40;;
27127;SDS011;14660;49.008;8.390;2022-12-11T14:23:29;27.98;;;16.13;;
27127;SDS011;14660;49.008;8.390;2022-12-11T14:28:43;40.45;;;18.67;;
27127;SDS011;14660;49.008;8.390;2022-12-11T14:31:12;35.25;;;18.52;;
27127;SDS011;14660;49.008;8.390;2022-12-11T14:33:52;36.50;;;19.13;;
27127;SDS011;14660;49.008;8.390;2022-12-11T14:36:23;34.50;;;17.95;;
27127;SDS011;14660;49.008;8.390;2022-12-11T14:38:55;38.78;;;19.52;;
27127;SDS011;14660;49.008;8.390;2022-12-11T14:44:14;28.30;;;16.40;;
27127;SDS011;14660;49.008;8.390;2022-12-11T14:49:30;34.60;;;16.92;;
27127;SDS011;14660;49.008;8.390;2022-12-11T14:52:09;31.73;;;15.50;;
27127;SDS011;14660;49.008;8.390;2022-12-11T14:54:49;33.88;;;17.42;;
27127;SDS011;14660;49.008;8.390;2022-12-11T14:57:20;33.03;;;17.65;;
27127;SDS011;14660;49.008;8.390;2022-12-11T14:59:51;30.02;;;16.80;;
27127;SDS011;14660;49.008;8.390;2022-12-11T15:05:17;37.30;;;18.63;;
27127;SDS011;14660;49.008;8.390;2022-12-11T15:16:30;34.85;;;17.58;;
27127;SDS011;14660;49.008;8.390;2022-12-11T15:18:59;31.48;;;17.83;;
27127;SDS011;14660;49.008;8.390;2022-12-11T15:21:30;35.20;;;18.15;;
27127;SDS011;14660;49.008;8.390;2022-12-11T15:24:01;35.20;;;19.33;;
27127;SDS011;14660;49.008;8.390;2022-12-11T15:34:40;36.55;;;18.90;;
27127;SDS011;14660;49.008;8.390;2022-12-11T15:39:57;36.30;;;18.05;;
27127;SDS011;14660;49.008;8.390;2022-12-11T15:45:24;36.28;;;18.30;;
27127;SDS011;14660;49.008;8.390;2022-12-11T15:47:53;38.55;;;20.52;;
27127;SDS011;14660;49.008;8.390;2022-12-11T15:50:21;34.08;;;19.60;;
27127;SDS011;14660;49.008;8.390;2022-12-11T15:52:50;37.33;;;19.60;;
27127;SDS011;14660;49.008;8.390;2022-12-11T15:55:18;38.60;;;18.73;;
27127;SDS011;14660;49.008;8.390;2022-12-11T15:57:47;35.95;;;19.00;;
27127;SDS011;14660;49.008;8.390;2022-12-11T16:00:18;39.20;;;22.23;;
27127;SDS011;14660;49.008;8.390;2022-12-11T16:02:46;37.00;;;20.88;;
27127;SDS011;14660;49.008;8.390;2022-12-11T16:05:13;36.72;;;19.35;;
27127;SDS011;14660;49.008;8.390;2022-12-11T16:07:40;38.53;;;21.67;;
27127;SDS011;14660;49.008;8.390;2022-12-11T16:10:09;40.97;;;19.48;;
27127;SDS011;14660;49.008;8.390;2022-12-11T16:15:07;31.27;;;17.38;;
27127;SDS011;14660;49.008;8.390;2022-12-11T16:17:40;39.50;;;20.40;;
27127;SDS011;14660;49.008;8.390;2022-12-11T16:20:06;32.28;;;17.75;;
27127;SDS011;14660;49.008;8.390;2022-12-11T16:22:35;34.20;;;18.58;;
27127;SDS011;14660;49.008;8.390;2022-12-11T16:25:00;30.52;;;16.40;;
27127;SDS011;14660;49.008;8.390;2022-12-11T16:27:27;33.92;;;18.25;;
27127;SDS011;14660;49.008;8.390;2022-12-11T16:29:53;39.30;;;20.17;;
27127;SDS011;14660;49.008;8.390;2022-12-11T16:32:20;31.88;;;17.92;;
27127;SDS011;14660;49.008;8.390;2022-12-11T16:34:45;35.33;;;19.52;;
27127;SDS011;14660;49.008;8.390;2022-12-11T16:37:12;37.97;;;20.23;;
27127;SDS011;14660;49.008;8.390;2022-12-11T16:39:38;39.35;;;20.20;;
27127;SDS011;14660;49.008;8.390;2022-12-11T16:42:07;33.45;;;16.85;;
27127;SDS011;14660;49.008;8.390;2022-12-11T16:44:33;31.92;;;19.45;;
27127;SDS011;14660;49.008;8.390;2022-12-11T16:46:59;35.03;;;19.20;;
27127;SDS011;14660;49.008;8.390;2022-12-11T16:49:26;34.08;;;17.60;;
27127;SDS011;14660;49.008;8.390;2022-12-11T16:51:53;32.20;;;16.83;;
27127;SDS011;14660;49.008;8.390;2022-12-11T16:54:19;38.20;;;19.55;;
27127;SDS011;14660;49.008;8.390;2022-12-11T16:56:46;34.92;;;18.73;;
27127;SDS011;14660;49.008;8.390;2022-12-11T16:59:12;38.00;;;20.08;;
27127;SDS011;14660;49.008;8.390;2022-12-11T17:01:38;33.35;;;18.10;;
27127;SDS011;14660;49.008;8.390;2022-12-11T17:04:04;35.85;;;17.23;;
27127;SDS011;14660;49.008;8.390;2022-12-11T17:06:31;31.45;;;17.50;;
27127;SDS011;14660;49.008;8.390;2022-12-11T17:08:58;34.85;;;17.98;;
27127;SDS011;14660;49.008;8.390;2022-12-11T17:11:24;34.28;;;18.58;;
27127;SDS011;14660;49.008;8.390;2022-12-11T17:13:53;32.88;;;17.83;;
27127;SDS011;14660;49.008;8.390;2022-12-11T17:16:21;32.10;;;18.83;;
27127;SDS011;14660;49.008;8.390;2022-12-11T17:18:51;31.48;;;16.30;;
27127;SDS011;14660;49.008;8.390;2022-12-11T17:21:19;34.58;;;19.55;;